createdAt,value
2017-09-17T00:02:08.418Z,89.50
2017-09-17T00:04:36.772Z,89.30
2017-09-17T00:07:04.326Z,89.30
2017-09-17T00:09:31.858Z,89.60
2017-09-17T00:11:59.439Z,90.30
2017-09-17T00:14:27.043Z,90.90
2017-09-17T00:16:55.344Z,91.10
2017-09-17T00:19:22.865Z,91.10
2017-09-17T00:21:51.237Z,90.90
2017-09-17T00:24:19.541Z,91.00
2017-09-17T00:26:48.776Z,91.30
2017-09-17T00:29:16.302Z,91.20
2017-09-17T00:31:44.605Z,90.80
2017-09-17T00:34:12.110Z,90.80
2017-09-17T00:36:39.638Z,90.80
2017-09-17T00:39:07.198Z,90.30
2017-09-17T00:41:34.732Z,90.00
2017-09-17T00:44:03.052Z,88.80
2017-09-17T00:46:30.564Z,88.80
2017-09-17T00:48:58.865Z,89.40
2017-09-17T00:51:26.393Z,89.30
2017-09-17T00:53:54.838Z,90.00
2017-09-17T00:56:22.334Z,89.80
2017-09-17T00:58:50.619Z,90.00
2017-09-17T01:01:18.178Z,89.80
2017-09-17T01:03:45.746Z,90.00
2017-09-17T01:06:13.274Z,90.40
2017-09-17T01:08:41.591Z,90.50
2017-09-17T01:11:09.142Z,90.50
2017-09-17T01:13:36.678Z,90.50
2017-09-17T01:16:04.978Z,90.20
2017-09-17T01:18:32.534Z,90.20
2017-09-17T01:21:00.051Z,90.10
2017-09-17T01:23:27.608Z,90.20
2017-09-17T01:25:55.151Z,90.30
2017-09-17T01:28:22.695Z,90.30
2017-09-17T01:30:50.200Z,90.30
2017-09-17T01:33:17.781Z,90.80
2017-09-17T01:35:46.067Z,91.00
2017-09-17T01:38:13.634Z,91.00
2017-09-17T01:40:41.150Z,91.10
2017-09-17T01:43:08.670Z,91.00
2017-09-17T01:45:36.219Z,91.00
2017-09-17T01:48:03.766Z,90.90
2017-09-17T01:50:31.301Z,90.70
2017-09-17T01:52:59.636Z,90.90
2017-09-17T01:55:27.158Z,90.90
2017-09-17T01:57:55.471Z,90.90
2017-09-17T02:00:23.044Z,90.90
2017-09-17T02:02:50.571Z,91.10
2017-09-17T02:05:18.127Z,91.30
2017-09-17T02:07:45.653Z,90.60
2017-09-17T02:10:13.941Z,91.00
2017-09-17T02:12:42.218Z,90.80
2017-09-17T02:15:10.530Z,90.80
2017-09-17T02:17:38.056Z,90.70
2017-09-17T02:20:06.380Z,90.60
2017-09-17T02:22:33.934Z,90.60
2017-09-17T02:25:01.498Z,90.70
2017-09-17T02:27:29.023Z,91.00
2017-09-17T02:29:57.332Z,91.20
2017-09-17T02:32:24.866Z,91.20
2017-09-17T02:34:52.436Z,91.30
2017-09-17T02:37:19.942Z,91.20
2017-09-17T02:39:47.504Z,91.30
2017-09-17T02:42:15.039Z,91.50
2017-09-17T02:44:42.607Z,91.40
2017-09-17T02:47:10.132Z,91.20
2017-09-17T02:49:37.685Z,91.10
2017-09-17T02:52:05.363Z,91.30
2017-09-17T02:54:32.905Z,91.70
2017-09-17T02:57:00.411Z,91.80
2017-09-17T02:59:27.981Z,91.60
2017-09-17T03:01:55.538Z,91.50
2017-09-17T03:04:23.120Z,91.80
2017-09-17T03:06:51.474Z,92.00
2017-09-17T03:09:19.063Z,92.00
2017-09-17T03:11:47.354Z,91.60
2017-09-17T03:14:15.761Z,91.70
2017-09-17T03:16:43.287Z,91.70
2017-09-17T03:19:11.606Z,91.80
2017-09-17T03:21:39.165Z,91.70
2017-09-17T03:24:06.716Z,91.50
2017-09-17T03:26:34.222Z,91.70
2017-09-17T03:29:02.570Z,91.80
2017-09-17T03:31:30.113Z,91.50
2017-09-17T03:33:57.683Z,91.40
2017-09-17T03:36:25.205Z,91.20
2017-09-17T03:38:52.748Z,91.10
2017-09-17T03:41:21.089Z,91.60
2017-09-17T03:43:48.641Z,91.50
2017-09-17T03:46:16.161Z,92.00
2017-09-17T03:48:44.454Z,92.20
2017-09-17T03:51:11.994Z,92.20
2017-09-17T03:53:39.514Z,92.40
2017-09-17T03:56:07.078Z,92.40
2017-09-17T03:58:34.604Z,92.50
2017-09-17T04:01:02.155Z,92.10
2017-09-17T04:03:29.689Z,92.00
2017-09-17T04:05:58.102Z,91.80
2017-09-17T04:08:25.699Z,91.90
2017-09-17T04:10:53.228Z,92.30
2017-09-17T04:13:20.759Z,91.60
2017-09-17T04:15:48.345Z,91.50
2017-09-17T04:18:15.855Z,91.40
2017-09-17T04:20:43.421Z,91.40
2017-09-17T04:23:10.933Z,91.80
2017-09-17T04:25:38.478Z,91.50
2017-09-17T04:28:06.084Z,91.50
2017-09-17T04:30:33.667Z,91.40
2017-09-17T04:33:01.966Z,91.40
2017-09-17T04:35:29.499Z,91.40
2017-09-17T04:37:57.778Z,91.60
2017-09-17T04:40:26.066Z,91.50
2017-09-17T04:42:54.389Z,91.60
2017-09-17T04:45:21.939Z,91.60
2017-09-17T04:47:50.073Z,91.50
2017-09-17T04:50:18.373Z,91.50
2017-09-17T04:52:45.903Z,91.50
2017-09-17T04:55:14.189Z,91.20
2017-09-17T04:57:42.474Z,91.40
2017-09-17T05:00:10.779Z,91.60
2017-09-17T05:02:38.308Z,91.60
2017-09-17T05:05:06.615Z,91.70
2017-09-17T05:07:34.140Z,91.60
2017-09-17T05:10:02.481Z,91.80
2017-09-17T05:12:30.022Z,91.70
2017-09-17T05:14:57.561Z,91.80
2017-09-17T05:17:25.098Z,91.80
2017-09-17T05:19:53.443Z,91.80
2017-09-17T05:22:20.948Z,91.80
2017-09-17T05:24:48.500Z,92.20
2017-09-17T05:27:16.805Z,92.20
2017-09-17T05:29:44.308Z,92.20
2017-09-17T05:32:11.843Z,92.10
2017-09-17T05:34:39.380Z,92.20
2017-09-17T05:37:06.931Z,91.90
2017-09-17T05:39:34.446Z,91.40
2017-09-17T05:42:01.974Z,91.00
2017-09-17T05:44:29.507Z,91.20
2017-09-17T05:46:57.026Z,91.30
2017-09-17T05:49:24.531Z,91.30
2017-09-17T05:51:52.053Z,91.00
2017-09-17T05:54:19.608Z,90.80
2017-09-17T05:56:47.940Z,90.60
2017-09-17T05:59:15.473Z,90.60
2017-09-17T06:01:43.782Z,90.60
2017-09-17T06:04:11.335Z,90.50
2017-09-17T06:06:38.869Z,90.80
2017-09-17T06:09:07.137Z,90.30
2017-09-17T06:11:34.669Z,90.20
2017-09-17T06:14:02.189Z,90.20
2017-09-17T06:16:29.714Z,90.40
2017-09-17T06:18:58.011Z,90.50
2017-09-17T06:21:25.552Z,90.40
2017-09-17T06:23:53.843Z,90.30
2017-09-17T06:26:22.149Z,90.50
2017-09-17T06:28:50.233Z,90.50
2017-09-17T06:31:17.889Z,90.50
2017-09-17T06:33:45.389Z,90.60
2017-09-17T06:36:13.694Z,90.30
2017-09-17T06:38:41.250Z,90.30
2017-09-17T06:41:08.791Z,90.20
2017-09-17T06:43:36.351Z,90.10
2017-09-17T06:46:04.681Z,88.90
2017-09-17T06:48:32.227Z,88.90
2017-09-17T06:50:59.755Z,88.90
2017-09-17T06:53:27.339Z,88.80
2017-09-17T06:55:54.878Z,89.30
2017-09-17T06:58:22.434Z,87.80
2017-09-17T07:00:50.367Z,86.80
2017-09-17T07:03:17.866Z,87.30
2017-09-17T07:05:45.453Z,87.50
2017-09-17T07:08:12.985Z,86.50
2017-09-17T07:10:41.287Z,85.80
2017-09-17T07:13:08.857Z,85.70
2017-09-17T07:15:36.367Z,85.40
2017-09-17T07:18:03.935Z,85.30
2017-09-17T07:20:32.243Z,84.70
2017-09-17T07:22:59.802Z,84.50
2017-09-17T07:25:27.325Z,85.00
2017-09-17T07:27:55.650Z,86.60
2017-09-17T07:30:23.199Z,86.40
2017-09-17T07:32:50.784Z,87.00
2017-09-17T07:35:19.102Z,85.20
2017-09-17T07:37:46.660Z,85.20
2017-09-17T07:40:14.226Z,85.50
2017-09-17T07:42:42.540Z,83.80
2017-09-17T07:45:10.106Z,83.80
2017-09-17T07:47:37.765Z,84.30
2017-09-17T07:50:05.293Z,85.40
2017-09-17T07:52:33.628Z,84.40
2017-09-17T07:55:01.147Z,84.30
2017-09-17T07:57:28.796Z,84.40
2017-09-17T07:59:57.081Z,81.40
2017-09-17T08:02:24.651Z,81.40
2017-09-17T08:04:52.199Z,82.40
2017-09-17T08:07:19.826Z,81.10
2017-09-17T08:09:47.434Z,78.80
2017-09-17T08:12:14.994Z,77.70
2017-09-17T08:14:42.540Z,78.20
2017-09-17T08:17:10.899Z,77.90
2017-09-17T08:19:38.450Z,77.90
2017-09-17T08:22:06.046Z,77.40
2017-09-17T08:24:33.578Z,76.00
2017-09-17T08:27:01.110Z,75.10
2017-09-17T08:29:28.762Z,75.80
2017-09-17T08:31:56.340Z,75.30
2017-09-17T08:34:23.968Z,74.10
2017-09-17T08:36:51.524Z,73.80
2017-09-17T08:39:20.922Z,71.80
2017-09-17T08:41:48.533Z,71.60
2017-09-17T08:44:16.929Z,71.10
2017-09-17T08:46:44.499Z,70.90
2017-09-17T08:49:12.126Z,70.00
2017-09-17T08:51:40.442Z,69.30
2017-09-17T08:54:09.572Z,67.60
2017-09-17T08:56:37.105Z,67.60
2017-09-17T08:59:05.465Z,65.50
2017-09-17T09:01:33.860Z,65.70
2017-09-17T09:04:02.186Z,65.20
2017-09-17T09:06:29.699Z,65.00
2017-09-17T09:08:58.083Z,59.90
2017-09-17T09:11:26.388Z,58.10
2017-09-17T09:13:54.017Z,58.10
2017-09-17T09:16:22.348Z,52.80
2017-09-17T09:18:51.346Z,51.60
2017-09-17T09:21:18.914Z,50.90
2017-09-17T09:23:46.549Z,47.60
2017-09-17T09:26:14.180Z,45.00
2017-09-17T09:28:41.746Z,41.20
2017-09-17T09:31:09.298Z,40.80
2017-09-17T09:33:36.848Z,39.50
2017-09-17T09:36:04.369Z,38.80
2017-09-17T09:38:31.927Z,37.70
2017-09-17T09:40:59.463Z,36.10
2017-09-17T09:43:27.015Z,32.30
2017-09-17T09:45:54.525Z,31.80
2017-09-17T09:48:22.072Z,32.70
2017-09-17T09:50:50.538Z,32.50
2017-09-17T09:53:18.122Z,31.80
2017-09-17T09:55:45.640Z,30.50
2017-09-17T09:58:13.170Z,29.10
2017-09-17T10:00:41.463Z,28.10
2017-09-17T10:03:09.035Z,28.10
2017-09-17T10:05:36.579Z,29.30
2017-09-17T10:08:04.168Z,29.80
2017-09-17T10:10:31.693Z,30.00
2017-09-17T10:12:59.231Z,30.60
2017-09-17T10:15:27.510Z,34.50
2017-09-17T10:17:55.806Z,35.00
2017-09-17T10:20:23.332Z,34.90
2017-09-17T10:22:50.859Z,36.00
2017-09-17T10:25:18.370Z,37.10
2017-09-17T10:27:46.735Z,38.90
2017-09-17T10:30:14.261Z,38.90
2017-09-17T10:32:41.799Z,38.20
2017-09-17T10:35:09.359Z,35.30
2017-09-17T10:37:36.884Z,33.50
2017-09-17T10:40:05.212Z,32.90
2017-09-17T10:42:32.924Z,32.90
2017-09-17T10:45:01.221Z,34.80
2017-09-17T10:47:28.729Z,34.80
2017-09-17T10:49:56.290Z,37.70
2017-09-17T10:52:23.797Z,41.00
2017-09-17T10:54:51.365Z,42.70
2017-09-17T10:57:18.882Z,44.90
2017-09-17T10:59:46.433Z,46.10
2017-09-17T11:02:13.937Z,50.10
2017-09-17T11:04:41.457Z,55.50
2017-09-17T11:07:08.986Z,55.70
2017-09-17T11:09:36.533Z,57.50
2017-09-17T11:12:04.048Z,57.40
2017-09-17T11:14:31.599Z,61.70
2017-09-17T11:16:59.102Z,59.00
2017-09-17T11:19:26.655Z,58.50
2017-09-17T11:21:54.163Z,56.20
2017-09-17T11:24:21.747Z,56.80
2017-09-17T11:26:50.952Z,54.30
2017-09-17T11:29:19.257Z,54.00
2017-09-17T11:31:46.818Z,54.00
2017-09-17T11:34:14.355Z,49.70
2017-09-17T11:36:42.630Z,51.80
2017-09-17T11:39:10.962Z,50.30
2017-09-17T11:41:38.583Z,50.30
2017-09-17T11:44:06.895Z,52.30
2017-09-17T11:46:34.407Z,52.20
2017-09-17T11:49:02.734Z,50.60
2017-09-17T11:51:30.255Z,50.50
2017-09-17T11:53:58.673Z,45.40
2017-09-17T11:56:26.195Z,45.40
2017-09-17T11:58:54.501Z,43.90
2017-09-17T12:01:22.035Z,43.90
2017-09-17T12:03:51.308Z,46.90
2017-09-17T12:06:18.851Z,46.80
2017-09-17T12:08:46.398Z,47.20
2017-09-17T12:11:14.030Z,45.90
2017-09-17T12:13:41.593Z,46.10
2017-09-17T12:16:09.134Z,48.70
2017-09-17T12:18:36.661Z,49.10
2017-09-17T12:21:04.210Z,48.30
2017-09-17T12:23:31.750Z,48.10
2017-09-17T12:25:59.288Z,49.60
2017-09-17T12:28:26.802Z,48.20
2017-09-17T12:30:54.332Z,48.60
2017-09-17T12:33:21.867Z,49.40
2017-09-17T12:35:49.462Z,50.30
2017-09-17T12:38:16.957Z,51.00
2017-09-17T12:40:45.229Z,53.50
2017-09-17T12:43:13.546Z,51.20
2017-09-17T12:45:41.109Z,51.10
2017-09-17T12:48:08.614Z,53.30
2017-09-17T12:50:36.169Z,52.70
2017-09-17T12:53:03.689Z,55.60
2017-09-17T12:55:31.260Z,52.00
2017-09-17T12:57:58.794Z,53.60
2017-09-17T13:00:26.356Z,51.20
2017-09-17T13:02:53.882Z,52.90
2017-09-17T13:05:22.214Z,50.50
2017-09-17T13:07:49.718Z,50.30
2017-09-17T13:10:18.025Z,45.60
2017-09-17T13:12:45.563Z,45.40
2017-09-17T13:15:13.899Z,48.60
2017-09-17T13:17:41.398Z,48.50
2017-09-17T13:20:09.726Z,45.80
2017-09-17T13:22:37.242Z,45.70
2017-09-17T13:25:05.571Z,43.00
2017-09-17T13:27:33.216Z,42.90
2017-09-17T13:30:00.742Z,43.70
2017-09-17T13:32:29.019Z,45.40
2017-09-17T13:34:57.303Z,45.30
2017-09-17T13:37:25.574Z,47.20
2017-09-17T13:39:53.911Z,46.90
2017-09-17T13:42:21.454Z,46.90
2017-09-17T13:44:49.014Z,47.60
2017-09-17T13:47:16.547Z,47.60
2017-09-17T13:49:44.105Z,47.10
2017-09-17T13:52:11.661Z,47.90
2017-09-17T13:54:39.186Z,49.30
2017-09-17T13:57:06.733Z,50.40
2017-09-17T13:59:34.867Z,49.50
2017-09-17T14:02:05.862Z,49.70
2017-09-17T14:04:34.337Z,49.10
2017-09-17T14:07:11.889Z,48.30
2017-09-17T14:09:39.438Z,48.30
2017-09-17T14:12:06.965Z,47.90
2017-09-17T14:14:34.462Z,48.40
2017-09-17T14:17:01.981Z,46.30
2017-09-17T14:19:30.267Z,44.70
2017-09-17T14:21:58.579Z,42.10
2017-09-17T14:24:26.130Z,42.00
2017-09-17T14:26:53.662Z,40.60
2017-09-17T14:29:21.941Z,41.00
2017-09-17T14:31:51.185Z,37.10
2017-09-17T14:34:18.720Z,37.10
2017-09-17T14:36:46.266Z,37.20
2017-09-17T14:39:14.576Z,38.10
2017-09-17T14:41:42.106Z,37.80
2017-09-17T14:44:11.049Z,38.50
2017-09-17T14:46:38.591Z,38.50
2017-09-17T14:49:06.098Z,38.70
2017-09-17T14:51:34.450Z,39.70
2017-09-17T14:54:02.007Z,39.60
2017-09-17T14:56:29.562Z,37.90
2017-09-17T14:58:57.086Z,37.90
2017-09-17T15:01:25.371Z,37.10
2017-09-17T15:03:52.895Z,37.10
2017-09-17T15:06:20.431Z,36.60
2017-09-17T15:08:47.945Z,36.10
2017-09-17T15:11:15.497Z,37.60
2017-09-17T15:13:43.046Z,38.70
2017-09-17T15:16:10.601Z,38.60
2017-09-17T15:18:38.163Z,39.30
2017-09-17T15:21:06.481Z,40.00
2017-09-17T15:23:34.023Z,40.00
2017-09-17T15:26:01.592Z,40.10
2017-09-17T15:28:29.088Z,40.40
2017-09-17T15:30:56.628Z,39.50
2017-09-17T15:33:24.197Z,38.90
2017-09-17T15:35:51.742Z,38.90
2017-09-17T15:38:19.301Z,38.80
2017-09-17T15:40:46.852Z,38.50
2017-09-17T15:43:14.369Z,37.90
2017-09-17T15:45:41.888Z,38.50
2017-09-17T15:48:09.413Z,38.70
2017-09-17T15:50:36.949Z,42.90
2017-09-17T15:53:05.277Z,46.20
2017-09-17T15:55:32.814Z,45.80
2017-09-17T15:58:00.384Z,46.50
2017-09-17T16:00:27.906Z,48.40
2017-09-17T16:02:56.187Z,50.60
2017-09-17T16:05:24.465Z,50.60
2017-09-17T16:07:52.774Z,51.20
2017-09-17T16:10:20.365Z,51.10
2017-09-17T16:12:48.675Z,53.30
2017-09-17T16:15:16.957Z,53.70
2017-09-17T16:17:45.333Z,53.90
2017-09-17T16:20:13.628Z,53.80
2017-09-17T16:22:41.963Z,55.40
2017-09-17T16:25:09.518Z,55.40
2017-09-17T16:27:37.095Z,55.40
2017-09-17T16:30:04.680Z,54.70
2017-09-17T16:32:33.642Z,55.60
2017-09-17T16:35:01.917Z,55.10
2017-09-17T16:37:29.464Z,55.00
2017-09-17T16:39:57.072Z,56.50
2017-09-17T16:42:25.362Z,58.50
2017-09-17T16:44:52.886Z,58.40
2017-09-17T16:47:20.441Z,63.70
2017-09-17T16:49:47.946Z,71.00
2017-09-17T16:52:15.469Z,75.40
2017-09-17T16:54:43.002Z,77.40
2017-09-17T16:57:10.581Z,79.80
2017-09-17T16:59:38.106Z,80.60
2017-09-17T17:02:05.639Z,83.70
2017-09-17T17:04:33.658Z,86.60
2017-09-17T17:07:01.283Z,87.60
2017-09-17T17:09:28.807Z,87.80
2017-09-17T17:11:57.114Z,88.20
2017-09-17T17:14:24.643Z,89.00
2017-09-17T17:16:52.983Z,88.30
2017-09-17T17:19:20.517Z,88.30
2017-09-17T17:21:48.042Z,85.70
2017-09-17T17:24:16.322Z,85.50
2017-09-17T17:26:44.607Z,89.90
2017-09-17T17:29:12.930Z,89.40
2017-09-17T17:31:40.450Z,89.20
2017-09-17T17:34:08.756Z,89.70
2017-09-17T17:36:36.285Z,89.70
2017-09-17T17:39:04.613Z,92.20
2017-09-17T17:41:32.131Z,92.10
2017-09-17T17:44:00.447Z,91.90
2017-09-17T17:46:28.003Z,91.90
2017-09-17T17:48:55.558Z,92.60
2017-09-17T17:51:23.149Z,92.00
2017-09-17T17:53:51.593Z,90.90
2017-09-17T17:56:19.121Z,91.00
2017-09-17T17:58:47.442Z,91.20
2017-09-17T18:01:14.950Z,91.20
2017-09-17T18:03:42.505Z,92.20
2017-09-17T18:06:10.846Z,93.20
2017-09-17T18:08:38.410Z,93.20
2017-09-17T18:11:05.940Z,93.40
2017-09-17T18:13:33.493Z,93.80
2017-09-17T18:16:01.049Z,93.90
2017-09-17T18:18:28.590Z,92.80
2017-09-17T18:20:56.895Z,93.70
2017-09-17T18:23:24.435Z,93.60
2017-09-17T18:25:51.957Z,93.70
2017-09-17T18:28:19.529Z,91.90
2017-09-17T18:30:47.098Z,92.00
2017-09-17T18:33:15.417Z,91.60
2017-09-17T18:35:42.930Z,91.60
2017-09-17T18:38:10.474Z,92.20
2017-09-17T18:40:37.973Z,92.50
2017-09-17T18:43:06.258Z,92.90
2017-09-17T18:45:33.846Z,92.90
2017-09-17T18:48:01.382Z,93.10
2017-09-17T18:50:34.653Z,92.90
2017-09-17T18:53:02.961Z,92.20
2017-09-17T18:55:30.489Z,92.20
2017-09-17T18:57:58.823Z,93.30
2017-09-17T19:00:26.339Z,93.30
2017-09-17T19:02:54.633Z,92.30
2017-09-17T19:05:22.170Z,91.90
2017-09-17T19:07:51.423Z,87.20
2017-09-17T19:10:19.022Z,87.20
2017-09-17T19:12:47.307Z,81.70
2017-09-17T19:15:15.601Z,79.40
2017-09-17T19:17:43.111Z,79.30
2017-09-17T19:20:10.634Z,79.40
2017-09-17T19:22:38.174Z,84.40
2017-09-17T19:25:05.727Z,87.50
2017-09-17T19:27:33.245Z,86.00
2017-09-17T19:30:00.788Z,86.40
2017-09-17T19:32:28.311Z,86.20
2017-09-17T19:34:55.878Z,86.80
2017-09-17T19:37:23.409Z,86.10
2017-09-17T19:39:52.434Z,88.40
2017-09-17T19:42:23.816Z,88.40
2017-09-17T19:44:51.605Z,89.70
2017-09-17T19:47:19.165Z,90.30
2017-09-17T19:49:46.711Z,89.80
2017-09-17T19:52:14.253Z,89.80
2017-09-17T19:54:41.780Z,91.50
2017-09-17T19:57:09.285Z,91.90
2017-09-17T19:59:36.818Z,91.80
2017-09-17T20:02:04.345Z,92.50
2017-09-17T20:04:32.685Z,92.30
2017-09-17T20:07:00.991Z,92.70
2017-09-17T20:09:29.368Z,92.40
2017-09-17T20:11:56.872Z,92.30
2017-09-17T20:14:24.487Z,92.00
2017-09-17T20:16:52.776Z,93.20
2017-09-17T20:19:21.097Z,92.70
2017-09-17T20:21:48.612Z,92.70
2017-09-17T20:24:16.931Z,92.90
2017-09-17T20:26:45.217Z,93.50
2017-09-17T20:29:12.764Z,93.50
2017-09-17T20:31:40.286Z,93.20
2017-09-17T20:34:08.623Z,92.80
2017-09-17T20:36:36.141Z,92.80
2017-09-17T20:39:04.451Z,92.70
2017-09-17T20:41:32.015Z,92.70
2017-09-17T20:43:59.589Z,93.30
2017-09-17T20:46:27.118Z,93.10
2017-09-17T20:48:54.683Z,92.80
2017-09-17T20:51:22.256Z,93.20
2017-09-17T20:53:50.674Z,93.20
2017-09-17T20:56:18.987Z,93.00
2017-09-17T20:58:46.510Z,93.00
2017-09-17T21:01:14.938Z,93.40
2017-09-17T21:03:42.463Z,93.30
2017-09-17T21:06:10.018Z,93.60
2017-09-17T21:08:38.313Z,93.40
2017-09-17T21:11:05.866Z,93.40
2017-09-17T21:13:33.398Z,93.40
2017-09-17T21:16:00.944Z,93.50
2017-09-17T21:18:28.471Z,93.90
2017-09-17T21:20:56.004Z,93.70
2017-09-17T21:23:24.347Z,94.10
2017-09-17T21:25:51.914Z,94.10
2017-09-17T21:28:19.486Z,94.00
2017-09-17T21:30:47.807Z,94.10
2017-09-17T21:33:15.350Z,94.10
2017-09-17T21:35:42.909Z,93.90
2017-09-17T21:38:10.426Z,93.60
2017-09-17T21:40:38.039Z,93.50
2017-09-17T21:43:05.565Z,93.60
2017-09-17T21:45:33.894Z,93.10
2017-09-17T21:48:01.409Z,93.10
2017-09-17T21:50:29.716Z,93.10
2017-09-17T21:52:57.232Z,93.10
2017-09-17T21:55:24.763Z,92.80
2017-09-17T21:57:52.276Z,93.00
2017-09-17T22:00:19.812Z,93.00
2017-09-17T22:02:47.310Z,92.90
2017-09-17T22:05:14.853Z,92.70
2017-09-17T22:07:42.369Z,92.60
2017-09-17T22:10:09.923Z,92.90
2017-09-17T22:12:38.138Z,92.70
2017-09-17T22:15:05.703Z,92.80
2017-09-17T22:17:34.009Z,92.60
2017-09-17T22:20:01.553Z,92.50
2017-09-17T22:22:29.095Z,92.80
2017-09-17T22:24:57.478Z,92.80
2017-09-17T22:27:25.763Z,93.00
2017-09-17T22:29:53.330Z,93.00
2017-09-17T22:32:20.850Z,93.10
2017-09-17T22:34:48.398Z,92.80
2017-09-17T22:37:15.944Z,92.30
2017-09-17T22:39:43.476Z,92.20
2017-09-17T22:42:11.062Z,92.70
2017-09-17T22:44:38.599Z,92.40
2017-09-17T22:47:06.145Z,92.60
2017-09-17T22:49:33.669Z,92.60
2017-09-17T22:52:02.002Z,93.40
2017-09-17T22:54:29.549Z,93.30
2017-09-17T22:56:57.086Z,93.50
2017-09-17T22:59:25.360Z,93.40
2017-09-17T23:01:53.666Z,93.20
2017-09-17T23:04:21.198Z,93.20
2017-09-17T23:06:49.524Z,93.40
2017-09-17T23:09:17.034Z,93.30
2017-09-17T23:11:44.588Z,93.40
2017-09-17T23:14:12.877Z,93.50
2017-09-17T23:16:41.216Z,93.40
2017-09-17T23:19:08.759Z,93.40
2017-09-17T23:21:36.326Z,93.70
2017-09-17T23:24:03.846Z,93.50
2017-09-17T23:26:32.194Z,93.50
2017-09-17T23:28:59.729Z,93.40
2017-09-17T23:31:27.297Z,93.50
2017-09-17T23:33:54.797Z,93.60
2017-09-17T23:36:22.322Z,93.50
2017-09-17T23:38:49.843Z,93.20
2017-09-17T23:41:17.396Z,93.00
2017-09-17T23:43:44.918Z,92.80
2017-09-17T23:46:12.503Z,92.70
2017-09-17T23:48:40.006Z,92.60
2017-09-17T23:51:07.535Z,92.30
2017-09-17T23:53:40.851Z,92.50
2017-09-17T23:56:08.425Z,92.40
2017-09-17T23:58:35.950Z,92.60
